sensor_id;sensor_type;location;lat;lon;timestamp;P1;durP1;ratioP1;P2;durP2;ratioP2
24443;SDS011;13346;50.984;5.822;2024-02-15T00:00:51;3.30;;;2.47;;
24443;SDS011;13346;50.984;5.822;2024-02-15T00:03:20;6.13;;;3.83;;
24443;SDS011;13346;50.984;5.822;2024-02-15T00:05:48;7.37;;;4.63;;
24443;SDS011;13346;50.984;5.822;2024-02-15T00:08:15;5.77;;;4.73;;
24443;SDS011;13346;50.984;5.822;2024-02-15T00:10:42;9.07;;;4.85;;
24443;SDS011;13346;50.984;5.822;2024-02-15T00:13:11;9.43;;;5.03;;
24443;SDS011;13346;50.984;5.822;2024-02-15T00:15:39;8.73;;;5.13;;
24443;SDS011;13346;50.984;5.822;2024-02-15T00:18:06;7.90;;;5.07;;
24443;SDS011;13346;50.984;5.822;2024-02-15T00:20:35;6.23;;;4.40;;
24443;SDS011;13346;50.984;5.822;2024-02-15T00:23:02;5.77;;;4.50;;
24443;SDS011;13346;50.984;5.822;2024-02-15T00:25:31;8.17;;;4.57;;
24443;SDS011;13346;50.984;5.822;2024-02-15T00:27:58;6.90;;;5.40;;
24443;SDS011;13346;50.984;5.822;2024-02-15T00:30:27;6.97;;;3.93;;
24443;SDS011;13346;50.984;5.822;2024-02-15T00:32:54;7.23;;;4.60;;
24443;SDS011;13346;50.984;5.822;2024-02-15T00:35:21;12.07;;;5.73;;
24443;SDS011;13346;50.984;5.822;2024-02-15T00:37:50;7.23;;;5.07;;
24443;SDS011;13346;50.984;5.822;2024-02-15T00:40:17;4.85;;;4.07;;
24443;SDS011;13346;50.984;5.822;2024-02-15T00:42:46;5.03;;;3.53;;
24443;SDS011;13346;50.984;5.822;2024-02-15T00:45:13;6.03;;;4.57;;
24443;SDS011;13346;50.984;5.822;2024-02-15T00:47:41;8.15;;;5.57;;
24443;SDS011;13346;50.984;5.822;2024-02-15T00:50:09;8.77;;;4.03;;
24443;SDS011;13346;50.984;5.822;2024-02-15T00:52:36;9.53;;;5.27;;
24443;SDS011;13346;50.984;5.822;2024-02-15T00:55:05;6.67;;;3.80;;
24443;SDS011;13346;50.984;5.822;2024-02-15T00:57:32;8.63;;;4.13;;
24443;SDS011;13346;50.984;5.822;2024-02-15T00:59:59;4.93;;;4.47;;
24443;SDS011;13346;50.984;5.822;2024-02-15T01:02:29;10.77;;;4.67;;
24443;SDS011;13346;50.984;5.822;2024-02-15T01:04:56;5.68;;;4.55;;
24443;SDS011;13346;50.984;5.822;2024-02-15T01:07:24;7.00;;;4.37;;
24443;SDS011;13346;50.984;5.822;2024-02-15T01:09:53;6.05;;;4.38;;
24443;SDS011;13346;50.984;5.822;2024-02-15T01:12:22;9.77;;;4.83;;
24443;SDS011;13346;50.984;5.822;2024-02-15T01:14:52;9.07;;;3.70;;
24443;SDS011;13346;50.984;5.822;2024-02-15T01:17:20;6.43;;;4.18;;
24443;SDS011;13346;50.984;5.822;2024-02-15T01:19:47;5.50;;;4.40;;
24443;SDS011;13346;50.984;5.822;2024-02-15T01:22:15;4.53;;;3.97;;
24443;SDS011;13346;50.984;5.822;2024-02-15T01:24:43;5.97;;;4.30;;
24443;SDS011;13346;50.984;5.822;2024-02-15T01:27:10;4.60;;;4.00;;
24443;SDS011;13346;50.984;5.822;2024-02-15T01:29:38;4.43;;;3.75;;
24443;SDS011;13346;50.984;5.822;2024-02-15T01:32:07;9.17;;;4.27;;
24443;SDS011;13346;50.984;5.822;2024-02-15T01:34:35;6.63;;;3.30;;
24443;SDS011;13346;50.984;5.822;2024-02-15T01:37:02;10.40;;;4.50;;
24443;SDS011;13346;50.984;5.822;2024-02-15T01:39:30;3.93;;;3.60;;
24443;SDS011;13346;50.984;5.822;2024-02-15T01:41:58;5.73;;;3.80;;
24443;SDS011;13346;50.984;5.822;2024-02-15T01:44:25;5.97;;;3.10;;
24443;SDS011;13346;50.984;5.822;2024-02-15T01:46:54;8.27;;;4.60;;
24443;SDS011;13346;50.984;5.822;2024-02-15T01:49:21;7.37;;;4.13;;
24443;SDS011;13346;50.984;5.822;2024-02-15T01:51:49;8.47;;;3.73;;
24443;SDS011;13346;50.984;5.822;2024-02-15T01:54:17;8.77;;;4.50;;
24443;SDS011;13346;50.984;5.822;2024-02-15T01:56:46;4.47;;;3.63;;
24443;SDS011;13346;50.984;5.822;2024-02-15T01:59:14;4.47;;;3.80;;
24443;SDS011;13346;50.984;5.822;2024-02-15T02:01:42;4.70;;;3.47;;
24443;SDS011;13346;50.984;5.822;2024-02-15T02:04:11;6.63;;;3.60;;
24443;SDS011;13346;50.984;5.822;2024-02-15T02:06:39;3.33;;;1.97;;
24443;SDS011;13346;50.984;5.822;2024-02-15T02:09:08;7.13;;;3.27;;
24443;SDS011;13346;50.984;5.822;2024-02-15T02:11:39;7.67;;;3.73;;
24443;SDS011;13346;50.984;5.822;2024-02-15T02:14:07;5.67;;;3.57;;
24443;SDS011;13346;50.984;5.822;2024-02-15T02:16:34;6.03;;;2.93;;
24443;SDS011;13346;50.984;5.822;2024-02-15T02:19:02;7.30;;;3.23;;
24443;SDS011;13346;50.984;5.822;2024-02-15T02:21:34;5.35;;;2.78;;
24443;SDS011;13346;50.984;5.822;2024-02-15T02:24:04;2.57;;;2.37;;
24443;SDS011;13346;50.984;5.822;2024-02-15T02:26:40;4.90;;;3.27;;
24443;SDS011;13346;50.984;5.822;2024-02-15T02:29:07;4.80;;;3.23;;
24443;SDS011;13346;50.984;5.822;2024-02-15T02:31:35;3.95;;;2.63;;
24443;SDS011;13346;50.984;5.822;2024-02-15T02:34:03;3.87;;;2.43;;
24443;SDS011;13346;50.984;5.822;2024-02-15T02:36:31;2.58;;;1.98;;
24443;SDS011;13346;50.984;5.822;2024-02-15T02:38:59;7.20;;;2.67;;
24443;SDS011;13346;50.984;5.822;2024-02-15T02:41:26;4.20;;;2.20;;
24443;SDS011;13346;50.984;5.822;2024-02-15T02:43:56;4.30;;;2.63;;
24443;SDS011;13346;50.984;5.822;2024-02-15T02:46:23;4.70;;;2.80;;
24443;SDS011;13346;50.984;5.822;2024-02-15T02:48:50;4.63;;;2.38;;
24443;SDS011;13346;50.984;5.822;2024-02-15T02:51:18;3.00;;;2.27;;
24443;SDS011;13346;50.984;5.822;2024-02-15T02:53:45;3.80;;;1.97;;
24443;SDS011;13346;50.984;5.822;2024-02-15T02:56:12;2.77;;;2.57;;
24443;SDS011;13346;50.984;5.822;2024-02-15T02:58:39;10.02;;;2.97;;
24443;SDS011;13346;50.984;5.822;2024-02-15T03:01:09;3.73;;;2.00;;
24443;SDS011;13346;50.984;5.822;2024-02-15T03:03:36;5.53;;;2.43;;
24443;SDS011;13346;50.984;5.822;2024-02-15T03:06:04;5.33;;;2.83;;
24443;SDS011;13346;50.984;5.822;2024-02-15T03:08:32;6.33;;;2.33;;
24443;SDS011;13346;50.984;5.822;2024-02-15T03:10:59;6.27;;;3.53;;
24443;SDS011;13346;50.984;5.822;2024-02-15T03:13:26;2.87;;;2.07;;
24443;SDS011;13346;50.984;5.822;2024-02-15T03:15:53;3.87;;;2.27;;
24443;SDS011;13346;50.984;5.822;2024-02-15T03:18:22;3.77;;;2.43;;
24443;SDS011;13346;50.984;5.822;2024-02-15T03:20:49;4.87;;;2.50;;
24443;SDS011;13346;50.984;5.822;2024-02-15T03:23:16;4.43;;;2.20;;
24443;SDS011;13346;50.984;5.822;2024-02-15T03:25:43;4.87;;;1.70;;
24443;SDS011;13346;50.984;5.822;2024-02-15T03:28:11;4.27;;;2.17;;
24443;SDS011;13346;50.984;5.822;2024-02-15T03:30:39;2.97;;;2.07;;
24443;SDS011;13346;50.984;5.822;2024-02-15T03:33:06;4.20;;;2.20;;
24443;SDS011;13346;50.984;5.822;2024-02-15T03:35:34;4.93;;;2.33;;
24443;SDS011;13346;50.984;5.822;2024-02-15T03:38:03;7.00;;;2.60;;
24443;SDS011;13346;50.984;5.822;2024-02-15T03:40:30;4.00;;;2.00;;
24443;SDS011;13346;50.984;5.822;2024-02-15T03:42:57;2.60;;;2.00;;
24443;SDS011;13346;50.984;5.822;2024-02-15T03:45:24;5.57;;;2.08;;
24443;SDS011;13346;50.984;5.822;2024-02-15T03:47:51;4.60;;;2.03;;
24443;SDS011;13346;50.984;5.822;2024-02-15T03:50:19;3.03;;;2.70;;
24443;SDS011;13346;50.984;5.822;2024-02-15T03:52:48;3.53;;;2.27;;
24443;SDS011;13346;50.984;5.822;2024-02-15T03:55:16;4.15;;;2.63;;
24443;SDS011;13346;50.984;5.822;2024-02-15T03:57:45;3.58;;;2.22;;
24443;SDS011;13346;50.984;5.822;2024-02-15T04:00:12;5.77;;;2.93;;
24443;SDS011;13346;50.984;5.822;2024-02-15T04:02:40;2.57;;;2.37;;
24443;SDS011;13346;50.984;5.822;2024-02-15T04:05:09;5.43;;;2.20;;
24443;SDS011;13346;50.984;5.822;2024-02-15T04:07:37;3.70;;;2.07;;
24443;SDS011;13346;50.984;5.822;2024-02-15T04:10:06;6.93;;;2.33;;
24443;SDS011;13346;50.984;5.822;2024-02-15T04:12:34;2.33;;;1.88;;
24443;SDS011;13346;50.984;5.822;2024-02-15T04:15:01;2.60;;;2.42;;
24443;SDS011;13346;50.984;5.822;2024-02-15T04:17:32;3.67;;;2.60;;
24443;SDS011;13346;50.984;5.822;2024-02-15T04:20:00;4.53;;;2.13;;
24443;SDS011;13346;50.984;5.822;2024-02-15T04:22:29;2.97;;;2.40;;
24443;SDS011;13346;50.984;5.822;2024-02-15T04:25:03;2.97;;;2.63;;
24443;SDS011;13346;50.984;5.822;2024-02-15T04:27:34;3.55;;;2.40;;
24443;SDS011;13346;50.984;5.822;2024-02-15T04:30:03;3.33;;;1.87;;
24443;SDS011;13346;50.984;5.822;2024-02-15T04:32:32;7.57;;;2.80;;
24443;SDS011;13346;50.984;5.822;2024-02-15T04:35:01;4.97;;;2.87;;
24443;SDS011;13346;50.984;5.822;2024-02-15T04:37:28;4.67;;;1.93;;
24443;SDS011;13346;50.984;5.822;2024-02-15T04:39:57;5.57;;;2.35;;
24443;SDS011;13346;50.984;5.822;2024-02-15T04:42:32;3.17;;;2.57;;
24443;SDS011;13346;50.984;5.822;2024-02-15T04:45:01;4.57;;;2.60;;
24443;SDS011;13346;50.984;5.822;2024-02-15T04:47:28;3.37;;;2.40;;
24443;SDS011;13346;50.984;5.822;2024-02-15T04:49:56;5.00;;;2.47;;
24443;SDS011;13346;50.984;5.822;2024-02-15T04:52:23;7.90;;;2.87;;
24443;SDS011;13346;50.984;5.822;2024-02-15T04:54:50;5.87;;;2.70;;
24443;SDS011;13346;50.984;5.822;2024-02-15T04:57:19;5.03;;;2.27;;
24443;SDS011;13346;50.984;5.822;2024-02-15T04:59:48;4.57;;;2.47;;
24443;SDS011;13346;50.984;5.822;2024-02-15T05:02:15;5.37;;;3.03;;
24443;SDS011;13346;50.984;5.822;2024-02-15T05:04:45;3.97;;;3.13;;
24443;SDS011;13346;50.984;5.822;2024-02-15T05:07:12;2.40;;;2.17;;
24443;SDS011;13346;50.984;5.822;2024-02-15T05:09:42;2.80;;;2.37;;
24443;SDS011;13346;50.984;5.822;2024-02-15T05:12:09;7.03;;;3.27;;
24443;SDS011;13346;50.984;5.822;2024-02-15T05:14:36;6.60;;;2.57;;
24443;SDS011;13346;50.984;5.822;2024-02-15T05:17:05;3.97;;;2.60;;
24443;SDS011;13346;50.984;5.822;2024-02-15T05:19:35;5.00;;;2.13;;
24443;SDS011;13346;50.984;5.822;2024-02-15T05:22:02;4.37;;;2.37;;
24443;SDS011;13346;50.984;5.822;2024-02-15T05:24:31;3.77;;;2.43;;
24443;SDS011;13346;50.984;5.822;2024-02-15T05:27:00;2.17;;;2.00;;
24443;SDS011;13346;50.984;5.822;2024-02-15T05:29:27;3.97;;;2.43;;
24443;SDS011;13346;50.984;5.822;2024-02-15T05:31:59;3.40;;;2.47;;
24443;SDS011;13346;50.984;5.822;2024-02-15T05:34:28;2.80;;;1.90;;
24443;SDS011;13346;50.984;5.822;2024-02-15T05:36:55;3.73;;;2.23;;
24443;SDS011;13346;50.984;5.822;2024-02-15T05:39:22;4.93;;;1.90;;
24443;SDS011;13346;50.984;5.822;2024-02-15T05:41:50;5.07;;;2.40;;
24443;SDS011;13346;50.984;5.822;2024-02-15T05:44:17;4.37;;;2.00;;
24443;SDS011;13346;50.984;5.822;2024-02-15T05:46:46;9.23;;;3.47;;
24443;SDS011;13346;50.984;5.822;2024-02-15T05:49:13;2.37;;;1.80;;
24443;SDS011;13346;50.984;5.822;2024-02-15T05:51:44;5.67;;;2.17;;
24443;SDS011;13346;50.984;5.822;2024-02-15T05:54:12;4.47;;;2.00;;
24443;SDS011;13346;50.984;5.822;2024-02-15T05:56:39;3.17;;;1.73;;
24443;SDS011;13346;50.984;5.822;2024-02-15T05:59:08;8.33;;;2.20;;
24443;SDS011;13346;50.984;5.822;2024-02-15T06:01:36;3.00;;;1.47;;
24443;SDS011;13346;50.984;5.822;2024-02-15T06:04:04;6.53;;;2.60;;
24443;SDS011;13346;50.984;5.822;2024-02-15T06:06:33;6.60;;;1.83;;
24443;SDS011;13346;50.984;5.822;2024-02-15T06:09:02;4.47;;;1.90;;
24443;SDS011;13346;50.984;5.822;2024-02-15T06:11:30;2.23;;;1.80;;
24443;SDS011;13346;50.984;5.822;2024-02-15T06:13:57;4.10;;;1.60;;
24443;SDS011;13346;50.984;5.822;2024-02-15T06:16:25;2.70;;;1.60;;
24443;SDS011;13346;50.984;5.822;2024-02-15T06:18:52;1.53;;;1.27;;
24443;SDS011;13346;50.984;5.822;2024-02-15T06:21:20;1.00;;;1.00;;
24443;SDS011;13346;50.984;5.822;2024-02-15T06:23:49;3.37;;;1.70;;
24443;SDS011;13346;50.984;5.822;2024-02-15T06:26:17;3.08;;;1.83;;
24443;SDS011;13346;50.984;5.822;2024-02-15T06:28:46;4.07;;;1.30;;
24443;SDS011;13346;50.984;5.822;2024-02-15T06:31:31;2.73;;;1.43;;
24443;SDS011;13346;50.984;5.822;2024-02-15T06:34:15;1.93;;;1.80;;
24443;SDS011;13346;50.984;5.822;2024-02-15T06:37:00;1.53;;;1.40;;
24443;SDS011;13346;50.984;5.822;2024-02-15T06:39:44;3.17;;;1.47;;
24443;SDS011;13346;50.984;5.822;2024-02-15T06:42:13;4.82;;;1.67;;
24443;SDS011;13346;50.984;5.822;2024-02-15T06:44:43;1.50;;;1.40;;
24443;SDS011;13346;50.984;5.822;2024-02-15T06:47:10;1.58;;;1.45;;
24443;SDS011;13346;50.984;5.822;2024-02-15T06:49:37;1.67;;;1.57;;
24443;SDS011;13346;50.984;5.822;2024-02-15T06:52:09;1.57;;;1.40;;
24443;SDS011;13346;50.984;5.822;2024-02-15T06:54:37;2.40;;;1.30;;
24443;SDS011;13346;50.984;5.822;2024-02-15T06:57:05;1.30;;;1.10;;
24443;SDS011;13346;50.984;5.822;2024-02-15T06:59:34;3.27;;;1.83;;
24443;SDS011;13346;50.984;5.822;2024-02-15T07:02:02;2.80;;;1.60;;
24443;SDS011;13346;50.984;5.822;2024-02-15T07:04:30;3.50;;;1.50;;
24443;SDS011;13346;50.984;5.822;2024-02-15T07:06:57;2.37;;;1.70;;
24443;SDS011;13346;50.984;5.822;2024-02-15T07:09:25;3.17;;;1.63;;
24443;SDS011;13346;50.984;5.822;2024-02-15T07:11:52;2.37;;;1.20;;
24443;SDS011;13346;50.984;5.822;2024-02-15T07:14:20;4.00;;;1.53;;
24443;SDS011;13346;50.984;5.822;2024-02-15T07:16:49;1.15;;;1.10;;
24443;SDS011;13346;50.984;5.822;2024-02-15T07:19:17;2.90;;;1.17;;
24443;SDS011;13346;50.984;5.822;2024-02-15T07:21:45;1.63;;;1.47;;
24443;SDS011;13346;50.984;5.822;2024-02-15T07:24:13;2.00;;;1.77;;
24443;SDS011;13346;50.984;5.822;2024-02-15T07:26:40;1.90;;;1.27;;
24443;SDS011;13346;50.984;5.822;2024-02-15T07:29:07;2.65;;;1.63;;
24443;SDS011;13346;50.984;5.822;2024-02-15T07:31:36;2.50;;;1.20;;
24443;SDS011;13346;50.984;5.822;2024-02-15T07:34:05;2.65;;;1.17;;
24443;SDS011;13346;50.984;5.822;2024-02-15T07:36:32;3.20;;;1.50;;
24443;SDS011;13346;50.984;5.822;2024-02-15T07:39:00;1.75;;;1.30;;
24443;SDS011;13346;50.984;5.822;2024-02-15T07:41:28;1.67;;;1.30;;
24443;SDS011;13346;50.984;5.822;2024-02-15T07:43:56;1.20;;;1.20;;
24443;SDS011;13346;50.984;5.822;2024-02-15T07:46:24;1.35;;;1.00;;
24443;SDS011;13346;50.984;5.822;2024-02-15T07:48:50;3.30;;;1.30;;
24443;SDS011;13346;50.984;5.822;2024-02-15T07:51:19;1.58;;;1.30;;
24443;SDS011;13346;50.984;5.822;2024-02-15T07:53:48;4.03;;;1.58;;
24443;SDS011;13346;50.984;5.822;2024-02-15T07:56:17;2.75;;;1.35;;
24443;SDS011;13346;50.984;5.822;2024-02-15T07:58:46;2.25;;;1.33;;
24443;SDS011;13346;50.984;5.822;2024-02-15T08:01:17;1.38;;;1.27;;
24443;SDS011;13346;50.984;5.822;2024-02-15T08:03:46;3.38;;;1.63;;
24443;SDS011;13346;50.984;5.822;2024-02-15T08:06:13;1.38;;;1.27;;
24443;SDS011;13346;50.984;5.822;2024-02-15T08:08:43;3.00;;;1.63;;
24443;SDS011;13346;50.984;5.822;2024-02-15T08:11:12;3.97;;;1.10;;
24443;SDS011;13346;50.984;5.822;2024-02-15T08:13:43;3.83;;;1.50;;
24443;SDS011;13346;50.984;5.822;2024-02-15T08:16:10;1.75;;;1.55;;
24443;SDS011;13346;50.984;5.822;2024-02-15T08:18:41;1.10;;;1.00;;
24443;SDS011;13346;50.984;5.822;2024-02-15T08:21:09;3.20;;;1.30;;
24443;SDS011;13346;50.984;5.822;2024-02-15T08:23:36;1.65;;;1.13;;
24443;SDS011;13346;50.984;5.822;2024-02-15T08:26:05;1.58;;;1.40;;
24443;SDS011;13346;50.984;5.822;2024-02-15T08:28:32;3.05;;;1.10;;
24443;SDS011;13346;50.984;5.822;2024-02-15T08:30:59;2.42;;;1.42;;
24443;SDS011;13346;50.984;5.822;2024-02-15T08:33:27;2.47;;;1.48;;
24443;SDS011;13346;50.984;5.822;2024-02-15T08:35:55;2.25;;;1.00;;
24443;SDS011;13346;50.984;5.822;2024-02-15T08:38:22;4.88;;;1.25;;
24443;SDS011;13346;50.984;5.822;2024-02-15T08:40:49;3.75;;;1.08;;
24443;SDS011;13346;50.984;5.822;2024-02-15T08:43:18;5.05;;;1.67;;
24443;SDS011;13346;50.984;5.822;2024-02-15T08:45:45;3.53;;;1.70;;
24443;SDS011;13346;50.984;5.822;2024-02-15T08:48:13;2.08;;;1.40;;
24443;SDS011;13346;50.984;5.822;2024-02-15T08:50:40;3.25;;;1.20;;
24443;SDS011;13346;50.984;5.822;2024-02-15T08:53:10;1.27;;;1.17;;
24443;SDS011;13346;50.984;5.822;2024-02-15T08:55:40;3.42;;;1.20;;
24443;SDS011;13346;50.984;5.822;2024-02-15T08:58:07;3.40;;;1.80;;
24443;SDS011;13346;50.984;5.822;2024-02-15T09:00:36;4.32;;;1.55;;
24443;SDS011;13346;50.984;5.822;2024-02-15T09:03:09;2.88;;;1.40;;
24443;SDS011;13346;50.984;5.822;2024-02-15T09:05:37;1.35;;;1.35;;
24443;SDS011;13346;50.984;5.822;2024-02-15T09:08:05;2.33;;;1.45;;
24443;SDS011;13346;50.984;5.822;2024-02-15T09:10:33;2.28;;;1.48;;
24443;SDS011;13346;50.984;5.822;2024-02-15T09:13:01;2.58;;;1.80;;
24443;SDS011;13346;50.984;5.822;2024-02-15T09:15:28;1.40;;;1.10;;
24443;SDS011;13346;50.984;5.822;2024-02-15T09:17:57;5.05;;;1.60;;
24443;SDS011;13346;50.984;5.822;2024-02-15T09:20:24;7.38;;;1.10;;
24443;SDS011;13346;50.984;5.822;2024-02-15T09:22:53;1.27;;;0.98;;
24443;SDS011;13346;50.984;5.822;2024-02-15T09:25:22;1.33;;;1.20;;
24443;SDS011;13346;50.984;5.822;2024-02-15T09:27:49;2.00;;;1.48;;
24443;SDS011;13346;50.984;5.822;2024-02-15T09:30:17;1.85;;;0.90;;
24443;SDS011;13346;50.984;5.822;2024-02-15T09:32:44;0.90;;;0.88;;
24443;SDS011;13346;50.984;5.822;2024-02-15T09:35:13;0.98;;;0.93;;
24443;SDS011;13346;50.984;5.822;2024-02-15T09:37:42;2.08;;;0.63;;
24443;SDS011;13346;50.984;5.822;2024-02-15T09:40:11;4.10;;;1.52;;
24443;SDS011;13346;50.984;5.822;2024-02-15T09:42:41;1.30;;;0.85;;
24443;SDS011;13346;50.984;5.822;2024-02-15T09:45:10;0.88;;;0.88;;
24443;SDS011;13346;50.984;5.822;2024-02-15T09:47:40;1.67;;;1.13;;
24443;SDS011;13346;50.984;5.822;2024-02-15T09:50:08;2.58;;;1.10;;
24443;SDS011;13346;50.984;5.822;2024-02-15T09:52:40;1.42;;;1.25;;
24443;SDS011;13346;50.984;5.822;2024-02-15T09:55:11;1.52;;;1.02;;
24443;SDS011;13346;50.984;5.822;2024-02-15T09:57:39;0.80;;;0.80;;
24443;SDS011;13346;50.984;5.822;2024-02-15T10:00:09;1.30;;;1.20;;
24443;SDS011;13346;50.984;5.822;2024-02-15T10:02:39;1.48;;;1.38;;
24443;SDS011;13346;50.984;5.822;2024-02-15T10:05:07;1.25;;;1.10;;
24443;SDS011;13346;50.984;5.822;2024-02-15T10:07:37;2.17;;;1.35;;
24443;SDS011;13346;50.984;5.822;2024-02-15T10:10:15;1.58;;;1.08;;
24443;SDS011;13346;50.984;5.822;2024-02-15T10:12:45;1.38;;;1.27;;
24443;SDS011;13346;50.984;5.822;2024-02-15T10:15:30;3.38;;;1.10;;
24443;SDS011;13346;50.984;5.822;2024-02-15T10:17:59;1.67;;;1.20;;
24443;SDS011;13346;50.984;5.822;2024-02-15T10:20:27;1.25;;;1.15;;
24443;SDS011;13346;50.984;5.822;2024-02-15T10:22:58;1.20;;;1.20;;
24443;SDS011;13346;50.984;5.822;2024-02-15T10:25:37;1.55;;;1.45;;
24443;SDS011;13346;50.984;5.822;2024-02-15T10:28:06;2.63;;;1.17;;
24443;SDS011;13346;50.984;5.822;2024-02-15T10:30:34;0.80;;;0.80;;
24443;SDS011;13346;50.984;5.822;2024-02-15T10:33:01;1.20;;;1.08;;
24443;SDS011;13346;50.984;5.822;2024-02-15T10:35:29;1.30;;;0.80;;
24443;SDS011;13346;50.984;5.822;2024-02-15T10:38:05;1.20;;;1.10;;
24443;SDS011;13346;50.984;5.822;2024-02-15T10:40:34;1.45;;;1.30;;
24443;SDS011;13346;50.984;5.822;2024-02-15T10:43:04;1.77;;;1.40;;
24443;SDS011;13346;50.984;5.822;2024-02-15T10:45:32;1.20;;;0.90;;
24443;SDS011;13346;50.984;5.822;2024-02-15T10:48:02;1.50;;;1.40;;
24443;SDS011;13346;50.984;5.822;2024-02-15T10:50:32;3.30;;;1.73;;
24443;SDS011;13346;50.984;5.822;2024-02-15T10:52:59;1.70;;;0.88;;
24443;SDS011;13346;50.984;5.822;2024-02-15T10:55:37;2.40;;;1.10;;
24443;SDS011;13346;50.984;5.822;2024-02-15T10:58:07;1.50;;;0.90;;
24443;SDS011;13346;50.984;5.822;2024-02-15T11:00:35;2.50;;;1.38;;
24443;SDS011;13346;50.984;5.822;2024-02-15T11:03:05;0.90;;;0.90;;
24443;SDS011;13346;50.984;5.822;2024-02-15T11:05:35;2.55;;;1.40;;
24443;SDS011;13346;50.984;5.822;2024-02-15T11:08:04;0.82;;;0.70;;
24443;SDS011;13346;50.984;5.822;2024-02-15T11:10:33;2.13;;;1.30;;
24443;SDS011;13346;50.984;5.822;2024-02-15T11:13:02;5.97;;;1.15;;
24443;SDS011;13346;50.984;5.822;2024-02-15T11:15:44;3.88;;;1.00;;
24443;SDS011;13346;50.984;5.822;2024-02-15T11:21:23;1.00;;;0.90;;
24443;SDS011;13346;50.984;5.822;2024-02-15T11:24:25;1.80;;;1.23;;
24443;SDS011;13346;50.984;5.822;2024-02-15T11:26:53;1.05;;;1.05;;
24443;SDS011;13346;50.984;5.822;2024-02-15T11:29:47;1.88;;;1.02;;
24443;SDS011;13346;50.984;5.822;2024-02-15T11:32:36;1.10;;;0.95;;
24443;SDS011;13346;50.984;5.822;2024-02-15T11:35:05;1.00;;;0.80;;
24443;SDS011;13346;50.984;5.822;2024-02-15T11:37:49;1.73;;;0.85;;
24443;SDS011;13346;50.984;5.822;2024-02-15T11:40:18;0.88;;;0.88;;
24443;SDS011;13346;50.984;5.822;2024-02-15T11:42:48;0.80;;;0.80;;
24443;SDS011;13346;50.984;5.822;2024-02-15T11:45:16;0.80;;;0.80;;
24443;SDS011;13346;50.984;5.822;2024-02-15T11:47:48;4.30;;;1.33;;
24443;SDS011;13346;50.984;5.822;2024-02-15T11:50:17;1.10;;;1.10;;
24443;SDS011;13346;50.984;5.822;2024-02-15T11:52:45;2.75;;;1.27;;
24443;SDS011;13346;50.984;5.822;2024-02-15T11:55:14;0.88;;;0.88;;
24443;SDS011;13346;50.984;5.822;2024-02-15T11:57:54;1.30;;;0.98;;
24443;SDS011;13346;50.984;5.822;2024-02-15T12:00:28;1.13;;;0.88;;
24443;SDS011;13346;50.984;5.822;2024-02-15T12:03:15;0.80;;;0.80;;
24443;SDS011;13346;50.984;5.822;2024-02-15T12:06:00;0.85;;;0.85;;
24443;SDS011;13346;50.984;5.822;2024-02-15T12:08:45;1.60;;;1.33;;
24443;SDS011;13346;50.984;5.822;2024-02-15T12:11:29;1.45;;;1.35;;
24443;SDS011;13346;50.984;5.822;2024-02-15T12:14:14;1.75;;;1.05;;
24443;SDS011;13346;50.984;5.822;2024-02-15T12:17:00;1.42;;;1.08;;
24443;SDS011;13346;50.984;5.822;2024-02-15T12:19:47;1.20;;;1.10;;
24443;SDS011;13346;50.984;5.822;2024-02-15T12:22:17;3.03;;;1.20;;
24443;SDS011;13346;50.984;5.822;2024-02-15T12:24:53;1.40;;;1.30;;
24443;SDS011;13346;50.984;5.822;2024-02-15T12:27:21;2.22;;;1.50;;
24443;SDS011;13346;50.984;5.822;2024-02-15T12:29:55;0.80;;;0.80;;
24443;SDS011;13346;50.984;5.822;2024-02-15T12:32:23;1.00;;;0.90;;
24443;SDS011;13346;50.984;5.822;2024-02-15T12:34:52;1.23;;;1.13;;
24443;SDS011;13346;50.984;5.822;2024-02-15T12:37:41;0.98;;;0.98;;
24443;SDS011;13346;50.984;5.822;2024-02-15T12:40:12;1.45;;;1.10;;
24443;SDS011;13346;50.984;5.822;2024-02-15T12:42:41;0.80;;;0.77;;
24443;SDS011;13346;50.984;5.822;2024-02-15T12:45:14;2.90;;;1.10;;
24443;SDS011;13346;50.984;5.822;2024-02-15T12:47:46;1.08;;;1.00;;
24443;SDS011;13346;50.984;5.822;2024-02-15T12:50:16;1.20;;;0.90;;
24443;SDS011;13346;50.984;5.822;2024-02-15T12:52:45;1.25;;;1.15;;
24443;SDS011;13346;50.984;5.822;2024-02-15T12:55:13;3.45;;;1.10;;
24443;SDS011;13346;50.984;5.822;2024-02-15T12:57:42;2.55;;;1.17;;
24443;SDS011;13346;50.984;5.822;2024-02-15T13:00:13;1.02;;;0.95;;
24443;SDS011;13346;50.984;5.822;2024-02-15T13:02:44;1.92;;;1.48;;
24443;SDS011;13346;50.984;5.822;2024-02-15T13:05:14;0.63;;;0.63;;
24443;SDS011;13346;50.984;5.822;2024-02-15T13:07:44;2.42;;;0.98;;
24443;SDS011;13346;50.984;5.822;2024-02-15T13:10:12;1.30;;;1.17;;
24443;SDS011;13346;50.984;5.822;2024-02-15T13:12:40;1.00;;;0.82;;
24443;SDS011;13346;50.984;5.822;2024-02-15T13:15:09;2.22;;;0.98;;
24443;SDS011;13346;50.984;5.822;2024-02-15T13:17:40;1.35;;;1.25;;
24443;SDS011;13346;50.984;5.822;2024-02-15T13:20:10;1.35;;;1.25;;
24443;SDS011;13346;50.984;5.822;2024-02-15T13:22:40;0.95;;;0.85;;
24443;SDS011;13346;50.984;5.822;2024-02-15T13:25:09;1.13;;;1.02;;
24443;SDS011;13346;50.984;5.822;2024-02-15T13:27:36;1.17;;;1.00;;
24443;SDS011;13346;50.984;5.822;2024-02-15T13:30:04;0.85;;;0.85;;
24443;SDS011;13346;50.984;5.822;2024-02-15T13:32:34;3.00;;;0.90;;
24443;SDS011;13346;50.984;5.822;2024-02-15T13:35:03;1.48;;;1.00;;
24443;SDS011;13346;50.984;5.822;2024-02-15T13:37:38;2.65;;;1.02;;
24443;SDS011;13346;50.984;5.822;2024-02-15T13:40:09;1.38;;;1.27;;
24443;SDS011;13346;50.984;5.822;2024-02-15T13:42:41;1.58;;;1.20;;
24443;SDS011;13346;50.984;5.822;2024-02-15T13:45:14;1.83;;;1.27;;
24443;SDS011;13346;50.984;5.822;2024-02-15T13:47:43;2.25;;;1.00;;
24443;SDS011;13346;50.984;5.822;2024-02-15T13:50:12;1.25;;;1.15;;
24443;SDS011;13346;50.984;5.822;2024-02-15T13:52:42;1.20;;;1.10;;
24443;SDS011;13346;50.984;5.822;2024-02-15T13:55:10;4.57;;;1.13;;
24443;SDS011;13346;50.984;5.822;2024-02-15T13:57:38;2.65;;;1.30;;
24443;SDS011;13346;50.984;5.822;2024-02-15T14:00:07;1.92;;;1.08;;
24443;SDS011;13346;50.984;5.822;2024-02-15T14:02:39;2.00;;;1.02;;
24443;SDS011;13346;50.984;5.822;2024-02-15T14:05:08;1.80;;;1.70;;
24443;SDS011;13346;50.984;5.822;2024-02-15T14:07:37;2.47;;;1.60;;
24443;SDS011;13346;50.984;5.822;2024-02-15T14:10:06;1.55;;;1.45;;
24443;SDS011;13346;50.984;5.822;2024-02-15T14:12:34;1.23;;;1.13;;
24443;SDS011;13346;50.984;5.822;2024-02-15T14:15:01;1.10;;;0.98;;
24443;SDS011;13346;50.984;5.822;2024-02-15T14:17:30;1.45;;;1.35;;
24443;SDS011;13346;50.984;5.822;2024-02-15T14:19:58;1.65;;;1.55;;
24443;SDS011;13346;50.984;5.822;2024-02-15T14:22:26;3.03;;;2.10;;
24443;SDS011;13346;50.984;5.822;2024-02-15T14:24:54;1.23;;;1.13;;
24443;SDS011;13346;50.984;5.822;2024-02-15T14:27:23;1.88;;;1.08;;
24443;SDS011;13346;50.984;5.822;2024-02-15T14:29:50;2.78;;;1.27;;
24443;SDS011;13346;50.984;5.822;2024-02-15T14:32:34;1.83;;;1.17;;
24443;SDS011;13346;50.984;5.822;2024-02-15T14:35:19;1.58;;;1.33;;
24443;SDS011;13346;50.984;5.822;2024-02-15T14:37:46;2.47;;;1.60;;
24443;SDS011;13346;50.984;5.822;2024-02-15T14:40:14;4.97;;;1.40;;
24443;SDS011;13346;50.984;5.822;2024-02-15T14:42:43;2.10;;;1.40;;
24443;SDS011;13346;50.984;5.822;2024-02-15T14:45:11;1.73;;;0.90;;
24443;SDS011;13346;50.984;5.822;2024-02-15T14:47:38;1.25;;;1.15;;
24443;SDS011;13346;50.984;5.822;2024-02-15T14:50:07;1.35;;;1.25;;
24443;SDS011;13346;50.984;5.822;2024-02-15T14:52:38;1.60;;;1.50;;
24443;SDS011;13346;50.984;5.822;2024-02-15T14:55:05;1.83;;;1.40;;
24443;SDS011;13346;50.984;5.822;2024-02-15T14:57:33;1.10;;;1.00;;
24443;SDS011;13346;50.984;5.822;2024-02-15T15:00:03;1.95;;;1.30;;
24443;SDS011;13346;50.984;5.822;2024-02-15T15:02:36;2.38;;;1.17;;
24443;SDS011;13346;50.984;5.822;2024-02-15T15:05:03;1.50;;;1.40;;